Time;durP1;ratioP1;P1;durP2;ratioP2;P2;SDS_P1;SDS_P2;PMS_P1;PMS_P2;Temp;Humidity;BMP_temperature;BMP_pressure;BME280_temperature;BME280_humidity;BME280_pressure;Samples;Min_cycle;Max_cycle;Signal;HPM_P1;HPM_P2
2021/10/20 00:02:10;;;;;;;;;17.00;12.75;;;;;22.06;47.49;101072.19;5010158;28;51922;-45
2021/10/20 00:04:36;;;;;;;;;13.50;11.75;;;;;22.06;47.49;101066.69;5011385;28;51303;-44
2021/10/20 00:07:01;;;;;;;;;10.00;10.00;;;;;22.05;47.50;101063.09;5007660;28;51548;-46
2021/10/20 00:09:26;;;;;;;;;11.75;8.75;;;;;22.05;47.35;101059.47;5002993;28;51263;-42
2021/10/20 00:11:52;;;;;;;;;11.25;10.50;;;;;22.05;47.40;101056.72;5004176;28;51700;-44
2021/10/20 00:14:17;;;;;;;;;11.50;11.00;;;;;22.05;47.11;101052.06;5007054;28;51210;-45
2021/10/20 00:16:43;;;;;;;;;14.75;11.75;;;;;22.04;47.59;101046.75;5001508;28;51213;-44
2021/10/20 00:19:09;;;;;;;;;10.75;9.00;;;;;22.04;47.19;101046.75;5004388;28;51224;-44
2021/10/20 00:21:34;;;;;;;;;14.00;12.25;;;;;22.04;47.22;101055.03;5008040;28;51321;-44
2021/10/20 00:24:00;;;;;;;;;10.50;9.50;;;;;22.04;47.25;101044.00;5001478;28;51118;-46
2021/10/20 00:26:25;;;;;;;;;12.00;10.00;;;;;22.04;47.04;101033.81;5008271;28;51640;-43
2021/10/20 00:28:50;;;;;;;;;14.50;12.50;;;;;22.03;47.51;101031.28;5005001;28;51148;-42
2021/10/20 00:31:16;;;;;;;;;6.50;5.00;;;;;22.03;47.18;101032.13;4997780;28;51682;-44
2021/10/20 00:33:41;;;;;;;;;11.25;9.50;;;;;22.03;47.53;101026.63;5004882;28;51079;-48
2021/10/20 00:36:07;;;;;;;;;10.00;10.00;;;;;22.02;47.14;101022.16;5005255;28;51059;-44
2021/10/20 00:38:32;;;;;;;;;11.25;10.00;;;;;22.03;47.56;101031.28;5005501;28;51186;-49
2021/10/20 00:40:58;;;;;;;;;11.50;10.25;;;;;22.01;47.30;101026.00;5006718;28;50896;-44
2021/10/20 00:43:24;;;;;;;;;11.00;8.75;;;;;22.02;47.76;101026.84;5013441;28;51152;-47
2021/10/20 00:45:50;;;;;;;;;10.00;9.00;;;;;22.02;47.54;101018.56;5007041;28;50992;-45
2021/10/20 00:48:16;;;;;;;;;9.00;9.00;;;;;22.01;47.61;101005.84;5006900;28;51449;-49
2021/10/20 00:50:42;;;;;;;;;11.00;9.75;;;;;22.02;47.61;101004.78;5005919;28;51761;-45
2021/10/20 00:53:07;;;;;;;;;13.25;11.00;;;;;22.01;47.67;100995.66;5007575;28;51180;-46
2021/10/20 00:55:34;;;;;;;;;9.25;9.25;;;;;22.02;47.28;100993.75;4999978;28;51245;-45
2021/10/20 00:58:00;;;;;;;;;10.75;8.25;;;;;22.02;47.36;100993.75;5003977;28;51206;-45
2021/10/20 01:00:25;;;;;;;;;9.00;8.25;;;;;22.02;47.30;100999.25;4997658;28;51784;-42
2021/10/20 01:02:52;;;;;;;;;11.00;9.00;;;;;22.01;47.73;100992.91;4999408;28;51131;-46
2021/10/20 01:05:17;;;;;;;;;10.00;8.25;;;;;22.00;47.19;100988.47;5004492;28;51213;-46
2021/10/20 01:07:43;;;;;;;;;8.00;7.75;;;;;22.01;47.66;100983.78;5005514;28;51112;-46
2021/10/20 01:10:10;;;;;;;;;10.00;7.00;;;;;22.01;47.10;100987.38;5004146;28;50990;-49
2021/10/20 01:12:36;;;;;;;;;10.00;8.00;;;;;22.00;47.63;100988.47;4993344;28;50965;-50
2021/10/20 01:15:11;;;;;;;;;11.25;9.25;;;;;22.00;47.65;100988.47;5001788;28;51136;-48
2021/10/20 01:17:37;;;;;;;;;6.75;6.50;;;;;22.00;47.33;100982.09;5009047;28;51172;-48
2021/10/20 01:20:05;;;;;;;;;9.50;8.00;;;;;22.00;47.08;100976.59;5006848;28;51038;-46
2021/10/20 01:22:31;;;;;;;;;8.00;7.50;;;;;21.99;47.54;100969.34;5000175;28;51489;-48
2021/10/20 01:24:58;;;;;;;;;8.50;7.50;;;;;21.99;47.85;100972.13;5010976;28;51287;-47
2021/10/20 01:27:23;;;;;;;;;9.50;8.00;;;;;21.99;47.69;100969.34;5008776;28;51080;-49
2021/10/20 01:29:48;;;;;;;;;10.25;9.25;;;;;21.99;47.48;100963.84;5007464;28;51063;-46
2021/10/20 01:32:14;;;;;;;;;9.00;9.00;;;;;21.99;47.21;100961.09;4998941;28;50998;-43
2021/10/20 01:34:39;;;;;;;;;9.00;8.00;;;;;21.99;47.38;100956.44;5007843;28;51183;-43
2021/10/20 01:37:05;;;;;;;;;10.00;8.75;;;;;21.98;47.40;100956.63;5014284;28;50973;-45
2021/10/20 01:39:32;;;;;;;;;7.75;6.25;;;;;21.97;47.70;100947.53;5006713;28;51746;-45
2021/10/20 01:41:58;;;;;;;;;11.75;7.00;;;;;21.98;47.53;100954.72;5004342;28;51141;-46
2021/10/20 01:44:23;;;;;;;;;8.00;7.00;;;;;21.98;47.28;100951.13;5004896;28;51157;-46
2021/10/20 01:46:49;;;;;;;;;8.00;8.00;;;;;21.98;47.45;100946.44;4997370;28;51086;-44
2021/10/20 01:49:15;;;;;;;;;10.00;9.00;;;;;21.97;47.27;100947.53;5003612;28;51924;-45
2021/10/20 01:51:40;;;;;;;;;6.25;6.25;;;;;21.98;47.71;100946.44;5001296;28;51066;-45
2021/10/20 01:54:07;;;;;;;;;9.00;8.75;;;;;21.97;47.57;100933.72;5004414;28;51213;-44
2021/10/20 01:56:33;;;;;;;;;6.75;6.75;;;;;21.97;47.74;100930.13;5012871;28;51315;-44
2021/10/20 01:58:58;;;;;;;;;7.00;7.00;;;;;21.96;47.32;100926.53;5010785;28;51225;-45
2021/10/20 02:01:24;;;;;;;;;7.50;7.50;;;;;21.96;47.51;100920.19;5003892;28;51091;-42
2021/10/20 02:03:51;;;;;;;;;9.00;6.50;;;;;21.97;47.42;100910.81;5004263;28;50970;-45
2021/10/20 02:06:18;;;;;;;;;9.25;7.25;;;;;21.96;47.88;100895.34;4998647;28;51364;-46
2021/10/20 02:08:45;;;;;;;;;8.00;7.50;;;;;21.97;47.43;100897.03;4979808;28;51230;-45
2021/10/20 02:11:11;;;;;;;;;11.50;8.50;;;;;21.96;48.03;100892.59;5010706;28;51020;-46
2021/10/20 02:13:38;;;;;;;;;6.75;5.75;;;;;21.97;48.19;100897.03;5006684;28;51822;-48
2021/10/20 02:16:04;;;;;;;;;7.00;7.00;;;;;21.95;47.66;100883.47;5005097;28;51921;-47
2021/10/20 02:18:30;;;;;;;;;8.25;7.00;;;;;21.96;47.65;100876.88;5004098;28;51095;-45
2021/10/20 02:20:56;;;;;;;;;8.25;7.00;;;;;21.97;48.18;100883.25;5003349;28;51328;-46
2021/10/20 02:23:21;;;;;;;;;9.75;7.25;;;;;21.96;47.65;100876.88;5003666;28;51091;-49
2021/10/20 02:25:48;;;;;;;;;8.75;6.25;;;;;21.96;47.84;100876.88;5004780;28;51154;-47
2021/10/20 02:28:13;;;;;;;;;8.75;8.00;;;;;21.96;48.18;100881.56;5008296;28;51452;-48
2021/10/20 02:30:39;;;;;;;;;7.25;6.75;;;;;21.96;47.58;100865.00;5005722;28;51030;-51
2021/10/20 02:33:05;;;;;;;;;6.75;6.50;;;;;21.95;47.86;100858.66;5003440;28;51198;-47
2021/10/20 02:35:30;;;;;;;;;8.75;8.75;;;;;21.95;47.81;100844.88;5006891;28;51241;-47
2021/10/20 02:37:56;;;;;;;;;9.00;8.00;;;;;21.95;47.78;100844.88;4997497;28;52304;-47
2021/10/20 02:40:21;;;;;;;;;8.25;7.00;;;;;21.95;47.87;100844.88;5003222;28;51082;-46
2021/10/20 02:42:47;;;;;;;;;7.75;7.25;;;;;21.95;48.22;100831.06;5002181;28;51185;-46
2021/10/20 02:45:15;;;;;;;;;8.00;8.00;;;;;21.95;48.13;100833.84;5004584;28;51257;-43
2021/10/20 02:47:41;;;;;;;;;7.75;5.75;;;;;21.94;47.68;100823.88;5010087;28;51685;-44
2021/10/20 02:50:08;;;;;;;;;7.25;6.00;;;;;21.95;48.12;100821.97;5002873;28;51075;-49
2021/10/20 02:52:34;;;;;;;;;6.00;5.00;;;;;21.95;48.19;100813.69;5006329;28;51043;-47
2021/10/20 02:55:00;;;;;;;;;7.25;6.00;;;;;21.95;48.34;100817.28;5005617;28;51343;-46
2021/10/20 02:57:25;;;;;;;;;7.25;6.25;;;;;21.94;47.83;100810.09;5017299;28;51110;-45
2021/10/20 02:59:52;;;;;;;;;7.75;6.25;;;;;21.93;47.68;100811.16;5009619;28;51326;-46
2021/10/20 03:02:18;;;;;;;;;6.00;5.50;;;;;21.95;48.25;100810.94;5000916;28;51258;-45
2021/10/20 03:04:44;;;;;;;;;7.00;6.50;;;;;21.94;47.88;100800.97;5004659;28;51074;-44
2021/10/20 03:07:09;;;;;;;;;6.00;5.75;;;;;21.95;48.36;100808.19;5008779;28;52828;-44
2021/10/20 03:09:35;;;;;;;;;8.00;8.00;;;;;21.94;48.15;100812.00;5008730;28;51643;-44
2021/10/20 03:12:00;;;;;;;;;6.00;6.00;;;;;21.94;47.91;100818.38;5006857;28;51009;-43
2021/10/20 03:14:26;;;;;;;;;7.25;6.25;;;;;21.94;47.90;100814.75;5006969;28;51312;-44
2021/10/20 03:16:51;;;;;;;;;8.00;6.00;;;;;21.93;48.27;100811.16;5008873;28;51833;-44
2021/10/20 03:19:17;;;;;;;;;7.00;5.25;;;;;21.94;48.34;100831.31;5007947;28;51086;-42
2021/10/20 03:21:42;;;;;;;;;8.75;6.25;;;;;21.93;48.11;100832.38;5008270;28;51379;-42
2021/10/20 03:24:08;;;;;;;;;6.50;6.50;;;;;21.94;47.83;100842.34;5004270;28;51405;-44
2021/10/20 03:26:34;;;;;;;;;6.75;6.75;;;;;21.94;47.81;100853.38;5010719;28;51834;-42
2021/10/20 03:28:59;;;;;;;;;6.00;5.00;;;;;21.93;48.21;100841.50;5001953;28;51207;-42
2021/10/20 03:31:25;;;;;;;;;8.00;7.00;;;;;21.93;48.45;100837.91;5010191;28;51363;-42
2021/10/20 03:33:50;;;;;;;;;7.00;6.50;;;;;21.93;47.86;100830.47;5007100;28;51327;-44
2021/10/20 03:36:15;;;;;;;;;6.75;6.75;;;;;21.92;48.22;100817.75;5005907;28;51729;-43
2021/10/20 03:38:41;;;;;;;;;4.50;4.50;;;;;21.92;47.80;100805.88;5009405;28;51187;-43
2021/10/20 03:41:06;;;;;;;;;7.00;7.00;;;;;21.91;47.82;100813.31;5002531;28;51483;-43
2021/10/20 03:43:32;;;;;;;;;6.50;5.00;;;;;21.90;47.96;100806.97;5012680;28;50912;-49
2021/10/20 03:45:57;;;;;;;;;7.25;6.25;;;;;21.92;47.74;100805.88;5005216;28;51672;-43
2021/10/20 03:48:23;;;;;;;;;9.25;7.00;;;;;21.91;48.00;100813.31;5005641;28;50946;-42
2021/10/20 03:50:48;;;;;;;;;8.00;7.00;;;;;21.90;47.84;100811.66;5008375;28;50993;-43
2021/10/20 03:53:13;;;;;;;;;5.00;5.00;;;;;21.90;48.17;100811.66;5006240;28;50891;-43
2021/10/20 03:55:39;;;;;;;;;6.25;5.75;;;;;21.90;47.90;100804.22;5004825;28;51803;-44
2021/10/20 03:58:05;;;;;;;;;5.50;5.00;;;;;21.90;48.12;100806.97;5008750;28;51335;-43
2021/10/20 04:00:31;;;;;;;;;7.50;6.50;;;;;21.89;47.98;100801.69;4999470;28;51228;-45
2021/10/20 04:02:56;;;;;;;;;6.50;5.00;;;;;21.89;48.48;100805.28;5005762;28;51150;-44
2021/10/20 04:05:22;;;;;;;;;7.25;6.75;;;;;21.90;47.84;100806.97;4997196;28;52801;-44
2021/10/20 04:07:49;;;;;;;;;6.50;6.50;;;;;21.89;48.13;100797.00;5012293;28;51194;-45
2021/10/20 04:10:21;;;;;;;;;7.25;7.25;;;;;21.89;47.94;100791.50;4999207;28;51575;-43
2021/10/20 04:12:46;;;;;;;;;6.00;5.00;;;;;21.89;48.01;100777.72;5004530;28;50979;-44
2021/10/20 04:15:14;;;;;;;;;6.50;6.00;;;;;21.89;48.23;100765.84;5000657;28;51747;-45
2021/10/20 04:17:40;;;;;;;;;8.00;6.00;;;;;21.88;48.10;100753.09;5011053;28;51014;-48
2021/10/20 04:20:07;;;;;;;;;6.25;6.25;;;;;21.89;48.17;100758.41;5011137;28;51167;-45
2021/10/20 04:22:34;;;;;;;;;9.25;7.50;;;;;21.89;48.46;100761.16;5005578;28;51332;-47
2021/10/20 04:24:59;;;;;;;;;8.00;5.00;;;;;21.88;48.06;100753.09;5011260;28;51079;-45
2021/10/20 04:27:25;;;;;;;;;7.25;5.00;;;;;21.88;48.57;100747.59;5002601;28;51374;-47
2021/10/20 04:29:50;;;;;;;;;8.00;6.00;;;;;21.87;48.32;100755.00;5009833;28;51157;-45
2021/10/20 04:32:15;;;;;;;;;4.75;4.75;;;;;21.88;48.07;100766.88;4999388;28;51027;-47
2021/10/20 04:34:41;;;;;;;;;6.50;6.50;;;;;21.88;48.38;100759.47;5005438;28;50974;-44
2021/10/20 04:37:06;;;;;;;;;7.50;6.00;;;;;21.88;48.21;100748.44;5008219;28;51039;-45
2021/10/20 04:39:31;;;;;;;;;6.75;6.50;;;;;21.88;48.29;100740.19;5006534;28;51184;-43
2021/10/20 04:41:57;;;;;;;;;6.00;6.00;;;;;21.88;48.23;100726.41;5007264;28;51086;-42
2021/10/20 04:44:22;;;;;;;;;5.75;5.75;;;;;21.88;48.49;100767.75;5004177;28;51231;-45
2021/10/20 04:46:47;;;;;;;;;7.75;5.75;;;;;21.88;48.16;100772.41;5002054;28;51156;-43
2021/10/20 04:49:13;;;;;;;;;7.00;7.00;;;;;21.87;48.45;100768.81;5005822;28;51384;-43
2021/10/20 04:51:38;;;;;;;;;8.00;7.00;;;;;21.88;48.54;100765.00;5005004;28;51069;-45
2021/10/20 04:54:03;;;;;;;;;6.25;6.00;;;;;21.88;48.00;100766.88;5004697;28;51422;-46
2021/10/20 04:56:29;;;;;;;;;5.75;4.75;;;;;21.87;48.21;100779.84;5006749;28;51199;-48
2021/10/20 04:58:54;;;;;;;;;5.00;5.00;;;;;21.88;48.53;100780.69;5005147;28;51319;-46
2021/10/20 05:01:19;;;;;;;;;7.00;7.00;;;;;21.87;48.25;100770.72;5014271;28;51378;-50
2021/10/20 05:03:45;;;;;;;;;6.50;5.25;;;;;21.87;47.99;100779.84;5007599;28;51911;-49
2021/10/20 05:06:10;;;;;;;;;5.75;5.75;;;;;21.86;48.41;100772.63;4997303;28;51089;-47
2021/10/20 05:08:35;;;;;;;;;8.00;6.00;;;;;21.86;47.89;100774.56;4994809;28;51148;-44
2021/10/20 05:11:01;;;;;;;;;5.00;5.00;;;;;21.85;48.04;100768.19;5004907;28;51156;-47
2021/10/20 05:13:26;;;;;;;;;5.00;5.00;;;;;21.86;48.05;100771.78;5003657;28;51607;-44
2021/10/20 05:15:51;;;;;;;;;5.00;5.00;;;;;21.85;48.47;100762.69;5011383;28;51185;-47
2021/10/20 05:18:17;;;;;;;;;6.75;5.00;;;;;21.86;48.11;100766.28;5002668;28;51652;-47
2021/10/20 05:20:42;;;;;;;;;5.50;5.00;;;;;21.85;48.63;100765.44;5003529;28;50881;-48
2021/10/20 05:23:10;;;;;;;;;5.50;5.00;;;;;21.85;48.41;100782.00;5002110;28;51702;-46
2021/10/20 05:25:37;;;;;;;;;9.50;8.25;;;;;21.86;48.01;100758.00;4992101;28;51102;-67
2021/10/20 05:28:03;;;;;;;;;10.50;9.75;;;;;21.84;48.42;100743.63;5008430;28;51210;-49
2021/10/20 05:30:28;;;;;;;;;9.75;8.25;;;;;21.82;48.31;100743.84;5004413;28;51306;-43
2021/10/20 05:32:54;;;;;;;;;9.75;7.50;;;;;21.80;48.61;100736.91;5006634;28;51032;-45
2021/10/20 05:35:19;;;;;;;;;10.00;8.25;;;;;21.79;48.99;100725.03;5009071;28;51141;-44
2021/10/20 05:37:47;;;;;;;;;8.50;8.50;;;;;21.84;48.75;100725.16;5007049;28;51028;-44
2021/10/20 05:40:13;;;;;;;;;9.75;8.25;;;;;21.93;48.66;100713.81;5005262;28;51200;-44
2021/10/20 05:42:38;;;;;;;;;8.75;6.25;;;;;22.02;48.35;100715.16;5003792;28;51076;-46
2021/10/20 05:45:04;;;;;;;;;11.75;7.50;;;;;22.10;48.42;100690.03;5004840;28;51025;-43
2021/10/20 05:47:29;;;;;;;;;10.25;7.00;;;;;22.20;48.27;100706.84;5003999;28;50989;-43
2021/10/20 05:49:54;;;;;;;;;6.50;6.00;;;;;22.28;48.10;100676.13;5006592;28;51436;-46
2021/10/20 05:52:20;;;;;;;;;7.25;7.25;;;;;22.36;48.22;100683.22;5006921;28;51792;-45
2021/10/20 05:54:45;;;;;;;;;6.50;6.50;;;;;22.43;48.17;100686.72;5000745;28;51120;-43
2021/10/20 05:57:10;;;;;;;;;8.50;7.50;;;;;22.51;48.19;100674.44;5004027;28;51111;-44
2021/10/20 05:59:36;;;;;;;;;7.25;4.00;;;;;22.57;47.76;100684.53;5003869;28;51180;-56
2021/10/20 06:02:01;;;;;;;;;9.75;9.00;;;;;22.62;48.30;100699.31;5003794;28;50962;-43
2021/10/20 06:04:27;;;;;;;;;7.75;6.00;;;;;22.65;48.32;100684.19;4996463;28;51090;-49
2021/10/20 06:06:52;;;;;;;;;6.75;6.75;;;;;22.65;47.99;100670.38;4988440;28;51235;-49
2021/10/20 06:09:17;;;;;;;;;8.25;8.25;;;;;22.64;47.62;100686.09;4989130;28;51447;-51
2021/10/20 06:11:43;;;;;;;;;7.25;7.00;;;;;22.62;48.08;100690.19;5004199;28;51958;-49
2021/10/20 06:14:08;;;;;;;;;7.00;7.00;;;;;22.61;48.12;100680.22;4984196;28;51201;-44
2021/10/20 06:16:36;;;;;;;;;6.00;5.00;;;;;22.59;48.44;100687.91;4998861;28;51296;-49
2021/10/20 06:19:03;;;;;;;;;8.00;6.00;;;;;22.57;48.02;100676.25;5010056;28;51054;-47
2021/10/20 06:21:29;;;;;;;;;5.75;5.25;;;;;22.55;48.04;100656.34;4985423;28;51184;-47
2021/10/20 06:23:55;;;;;;;;;7.00;7.00;;;;;22.54;48.28;100643.63;5005241;28;51559;-44
2021/10/20 06:26:20;;;;;;;;;9.25;7.00;;;;;22.53;48.31;100636.44;5008201;28;51322;-49
2021/10/20 06:28:45;;;;;;;;;6.00;6.00;;;;;22.52;48.51;100643.03;5008827;28;51348;-49
2021/10/20 06:31:11;;;;;;;;;8.75;7.00;;;;;22.51;48.17;100646.84;5004744;28;51243;-50
2021/10/20 06:33:36;;;;;;;;;5.25;5.25;;;;;22.50;48.34;100647.94;5009577;28;51199;-48
2021/10/20 06:36:02;;;;;;;;;8.25;6.50;;;;;22.49;48.70;100655.38;5005395;28;51103;-48
2021/10/20 06:38:28;;;;;;;;;6.50;5.75;;;;;22.47;48.68;100658.38;4980649;28;51063;-51
2021/10/20 06:40:53;;;;;;;;;7.00;7.00;;;;;22.46;48.47;100653.09;4998621;28;51877;-45
2021/10/20 06:43:19;;;;;;;;;8.00;5.25;;;;;22.44;48.89;100635.94;4981037;28;51181;-47
2021/10/20 06:45:44;;;;;;;;;8.50;7.75;;;;;22.43;48.95;100656.34;4998860;28;51161;-44
2021/10/20 06:48:10;;;;;;;;;9.25;8.00;;;;;22.41;48.58;100653.84;4998769;28;51045;-46
2021/10/20 06:50:35;;;;;;;;;9.25;7.00;;;;;22.41;48.62;100633.66;4998161;28;51751;-47
2021/10/20 06:53:01;;;;;;;;;7.75;6.25;;;;;22.39;48.18;100641.31;4998435;28;51140;-48
2021/10/20 06:55:27;;;;;;;;;9.75;6.25;;;;;22.37;48.25;100630.53;4998634;28;51055;-48
2021/10/20 06:57:52;;;;;;;;;6.00;6.00;;;;;22.36;48.30;100645.41;4998927;28;51239;-48
2021/10/20 07:00:18;;;;;;;;;6.75;5.25;;;;;22.36;48.50;100628.84;4998683;28;51804;-45
2021/10/20 07:02:43;;;;;;;;;8.00;7.00;;;;;22.35;48.32;100626.34;4998548;28;50997;-46
2021/10/20 07:05:09;;;;;;;;;6.00;5.25;;;;;22.33;48.21;100626.59;4998361;28;50901;-46
2021/10/20 07:07:35;;;;;;;;;8.50;7.00;;;;;22.38;48.00;100609.28;4981069;28;51192;-43
2021/10/20 07:10:01;;;;;;;;;6.00;5.00;;;;;22.42;48.40;100614.09;4998128;28;51059;-43
2021/10/20 07:12:30;;;;;;;;;8.50;7.00;;;;;22.44;47.82;100620.22;4998156;28;51398;-44
2021/10/20 07:14:56;;;;;;;;;8.00;5.75;;;;;22.45;47.96;100618.31;4998569;28;51182;-47
2021/10/20 07:17:21;;;;;;;;;9.50;9.00;;;;;22.45;48.07;100615.53;4998119;28;51043;-43
2021/10/20 07:19:46;;;;;;;;;8.25;6.25;;;;;22.42;48.24;100611.34;5014140;28;51697;-44
2021/10/20 07:22:12;;;;;;;;;7.00;5.50;;;;;22.42;47.87;100608.59;5017692;28;50943;-44
2021/10/20 07:24:37;;;;;;;;;6.50;6.50;;;;;22.42;47.84;100611.34;5017743;28;51028;-44
2021/10/20 07:27:04;;;;;;;;;7.25;6.00;;;;;22.40;48.02;100596.94;5018210;28;51776;-42
2021/10/20 07:29:29;;;;;;;;;7.00;6.50;;;;;22.39;48.07;100594.41;5017575;28;51117;-43
2021/10/20 07:31:55;;;;;;;;;6.75;6.25;;;;;22.39;47.76;100597.16;5017802;28;50979;-45
2021/10/20 07:34:20;;;;;;;;;5.25;5.25;;;;;22.37;47.72;100588.28;5017629;28;51066;-42
2021/10/20 07:36:46;;;;;;;;;7.50;7.50;;;;;22.36;48.34;100600.41;5017473;28;51324;-45
2021/10/20 07:39:14;;;;;;;;;6.00;4.25;;;;;22.35;48.30;100596.00;5017483;28;51910;-47
2021/10/20 07:41:40;;;;;;;;;8.25;6.50;;;;;22.33;48.53;100603.66;5017429;28;51105;-44
2021/10/20 07:44:06;;;;;;;;;8.00;7.50;;;;;22.32;48.27;100613.03;5017678;28;51046;-49
2021/10/20 07:46:32;;;;;;;;;6.25;6.25;;;;;22.31;48.13;100614.94;5017465;28;50928;-47
2021/10/20 07:48:58;;;;;;;;;5.50;5.00;;;;;22.31;48.21;100626.00;5017047;28;51016;-45
2021/10/20 07:51:23;;;;;;;;;8.75;6.75;;;;;22.31;48.29;100627.91;5017550;28;50978;-46
2021/10/20 07:53:49;;;;;;;;;6.75;6.25;;;;;22.31;48.10;100645.31;5017540;28;51034;-43
2021/10/20 07:56:14;;;;;;;;;8.00;6.50;;;;;22.29;48.08;100643.84;5017623;28;51267;-44
2021/10/20 07:58:39;;;;;;;;;9.00;8.00;;;;;22.26;47.89;100647.09;5016988;28;51893;-45
2021/10/20 08:01:05;;;;;;;;;8.00;7.50;;;;;22.25;47.87;100628.84;5017379;28;51067;-45
2021/10/20 08:03:30;;;;;;;;;6.50;6.50;;;;;22.24;47.79;100647.34;5017053;28;50951;-45
2021/10/20 08:05:55;;;;;;;;;9.00;9.00;;;;;22.24;47.77;100640.97;5017366;28;50888;-44
2021/10/20 08:08:21;;;;;;;;;7.50;7.25;;;;;22.23;47.81;100642.91;5016899;28;51841;-48
2021/10/20 08:10:47;;;;;;;;;7.25;7.25;;;;;22.22;48.12;100648.66;5017075;28;50943;-44
2021/10/20 08:13:12;;;;;;;;;7.75;6.25;;;;;22.22;48.30;100643.97;5017460;28;51179;-44
2021/10/20 08:15:39;;;;;;;;;8.00;7.00;;;;;22.19;48.02;100641.69;4999341;28;51126;-44
2021/10/20 08:18:05;;;;;;;;;7.75;6.50;;;;;22.18;47.78;100643.59;5014830;28;51113;-45
2021/10/20 08:20:33;;;;;;;;;4.75;4.75;;;;;22.18;48.16;100653.78;4997274;28;51295;-45
2021/10/20 08:23:00;;;;;;;;;7.50;6.75;;;;;22.16;48.33;100661.47;4997274;28;51167;-47
2021/10/20 08:25:26;;;;;;;;;6.00;6.00;;;;;22.16;48.07;100658.72;4997226;28;51025;-44
2021/10/20 08:27:51;;;;;;;;;9.75;7.00;;;;;22.16;47.65;100658.72;5013027;28;51167;-49
2021/10/20 08:30:18;;;;;;;;;8.00;8.00;;;;;22.15;48.09;100652.34;5017243;28;51034;-49
2021/10/20 08:32:47;;;;;;;;;7.25;7.25;;;;;22.15;47.83;100660.63;5016813;28;51094;-46
2021/10/20 08:35:16;;;;;;;;;7.50;7.25;;;;;22.14;47.66;100655.34;5016913;28;51296;-50
2021/10/20 08:37:43;;;;;;;;;7.00;7.00;;;;;22.13;48.22;100661.97;5016441;28;51074;-48
2021/10/20 08:40:11;;;;;;;;;6.00;6.00;;;;;22.13;47.79;100646.25;5016846;28;51317;-48
2021/10/20 08:42:37;;;;;;;;;7.25;7.25;;;;;22.12;47.60;100646.47;5016812;28;51181;-48
2021/10/20 08:45:03;;;;;;;;;7.00;6.50;;;;;22.12;47.74;100646.47;5016694;28;50979;-45
2021/10/20 08:47:29;;;;;;;;;8.00;8.00;;;;;22.12;47.82;100649.25;5015945;28;51794;-45
2021/10/20 08:49:55;;;;;;;;;7.75;7.75;;;;;22.12;48.29;100643.72;5015093;28;51125;-43
2021/10/20 08:52:21;;;;;;;;;7.00;7.00;;;;;22.12;48.17;100658.34;5016914;28;51093;-44
2021/10/20 08:54:47;;;;;;;;;6.75;6.75;;;;;22.12;47.97;100665.78;5016218;28;50982;-46
2021/10/20 08:57:12;;;;;;;;;6.75;6.75;;;;;22.10;47.65;100659.69;5016297;28;52077;-46
2021/10/20 08:59:37;;;;;;;;;5.00;5.00;;;;;22.11;48.01;100655.84;5016363;28;51172;-48
2021/10/20 09:02:04;;;;;;;;;8.00;6.00;;;;;22.10;48.07;100657.75;5016563;28;51173;-50
2021/10/20 09:04:30;;;;;;;;;7.00;6.25;;;;;22.10;47.83;100660.53;5016389;28;51372;-47
2021/10/20 09:06:59;;;;;;;;;10.50;7.50;;;;;22.12;48.22;100665.78;5016234;28;51988;-49
2021/10/20 09:09:33;;;;;;;;;8.00;7.25;;;;;22.11;47.60;100658.59;5016160;28;51306;-48
2021/10/20 09:11:59;;;;;;;;;10.25;7.00;;;;;22.12;48.00;100657.53;5016309;28;51149;-50
2021/10/20 09:14:25;;;;;;;;;9.00;7.00;;;;;22.12;47.90;100652.00;5016014;28;51295;-48
2021/10/20 09:16:50;;;;;;;;;5.25;5.00;;;;;22.10;48.22;100646.72;5015280;28;51118;-50
2021/10/20 09:19:20;;;;;;;;;6.50;6.50;;;;;22.09;48.24;100647.81;5003746;28;51042;-49
2021/10/20 09:21:58;;;;;;;;;5.75;5.75;;;;;22.08;47.69;100640.59;4996428;28;51213;-49
2021/10/20 09:24:27;;;;;;;;;5.00;5.00;;;;;22.09;48.18;100649.69;4996302;28;51624;-48
2021/10/20 09:26:56;;;;;;;;;9.00;7.25;;;;;22.07;48.20;100646.34;5004663;28;51962;-47
2021/10/20 09:29:23;;;;;;;;;6.25;6.25;;;;;22.08;48.17;100645.25;5015788;28;51100;-44
2021/10/20 09:31:49;;;;;;;;;8.00;6.50;;;;;22.07;48.11;100638.91;5015651;28;51104;-47
2021/10/20 09:34:15;;;;;;;;;6.25;6.25;;;;;22.07;47.81;100635.31;5015741;28;51386;-48
2021/10/20 09:36:40;;;;;;;;;8.00;6.75;;;;;22.06;47.87;100640.00;5015472;28;51725;-48
2021/10/20 09:39:09;;;;;;;;;6.75;6.50;;;;;22.06;47.97;100633.59;5016068;28;51150;-49
2021/10/20 09:41:35;;;;;;;;;5.50;5.50;;;;;22.06;47.88;100651.03;5015703;28;51061;-44
2021/10/20 09:44:00;;;;;;;;;8.25;6.75;;;;;22.05;47.73;100643.78;5015710;28;51114;-46
2021/10/20 09:46:37;;;;;;;;;8.00;6.25;;;;;22.04;48.10;100641.28;5015053;28;52499;-47
2021/10/20 09:49:14;;;;;;;;;8.00;6.00;;;;;22.03;48.22;100637.69;5015207;28;51299;-51
2021/10/20 09:51:40;;;;;;;;;6.50;6.50;;;;;22.03;48.22;100640.44;5015615;28;51059;-47
2021/10/20 09:54:24;;;;;;;;;7.75;7.50;;;;;22.02;48.17;100643.44;5015306;28;51246;-44
2021/10/20 09:56:58;;;;;;;;;11.00;8.50;;;;;22.01;47.76;100642.59;5015340;28;51029;-45
2021/10/20 09:59:27;;;;;;;;;5.00;5.00;;;;;22.02;48.12;100632.41;5014865;28;51379;-51
2021/10/20 10:01:53;;;;;;;;;9.50;9.25;;;;;22.01;48.29;100637.09;5015626;28;51076;-46
2021/10/20 10:04:19;;;;;;;;;9.00;8.00;;;;;22.01;48.33;100630.72;5014716;28;51157;-48
2021/10/20 10:06:46;;;;;;;;;6.75;5.00;;;;;22.00;47.92;100620.78;5014789;28;51026;-46
2021/10/20 10:09:12;;;;;;;;;9.00;8.00;;;;;22.00;48.11;100626.28;5015122;28;51169;-46
2021/10/20 10:11:42;;;;;;;;;6.75;6.75;;;;;22.00;48.02;100627.13;5015407;28;50982;-48
2021/10/20 10:14:08;;;;;;;;;11.00;8.25;;;;;22.02;48.39;100618.63;5015877;28;50904;-43
2021/10/20 10:16:38;;;;;;;;;6.75;6.75;;;;;22.01;48.61;100617.78;5015622;28;51007;-47
2021/10/20 10:19:04;;;;;;;;;9.25;9.25;;;;;22.02;48.08;100618.63;5009362;28;51051;-46
2021/10/20 10:21:31;;;;;;;;;11.25;9.00;;;;;22.01;48.26;100619.69;4995656;28;51111;-47
2021/10/20 10:23:58;;;;;;;;;7.50;7.25;;;;;22.01;48.58;100615.03;4995252;28;51266;-46
2021/10/20 10:26:24;;;;;;;;;9.50;8.00;;;;;22.02;48.23;100618.63;4999585;28;51043;-45
2021/10/20 10:29:12;;;;;;;;;6.50;6.50;;;;;22.02;48.51;100615.84;5014719;28;51086;-43
2021/10/20 10:31:42;;;;;;;;;8.50;7.00;;;;;22.02;48.58;100605.66;5015082;28;51177;-48
2021/10/20 10:34:24;;;;;;;;;5.75;5.75;;;;;22.02;48.59;100600.16;5015021;28;51270;-49
2021/10/20 10:36:57;;;;;;;;;8.75;7.50;;;;;22.03;48.20;100600.97;5014469;28;51900;-46
2021/10/20 10:39:24;;;;;;;;;8.50;6.75;;;;;22.03;48.67;100598.22;5014839;28;51093;-46
2021/10/20 10:41:50;;;;;;;;;6.50;6.50;;;;;22.04;48.75;100599.91;5014852;28;51049;-46
2021/10/20 10:44:24;;;;;;;;;7.25;6.50;;;;;22.02;48.66;100594.63;5014847;28;51411;-47
2021/10/20 10:47:08;;;;;;;;;6.75;6.75;;;;;22.03;48.29;100593.56;5013912;28;51190;-48
2021/10/20 10:49:44;;;;;;;;;11.00;8.75;;;;;22.04;48.20;100597.16;5014325;28;51364;-48
2021/10/20 10:52:33;;;;;;;;;9.75;7.25;;;;;22.03;48.08;100585.28;5014724;28;51149;-45
2021/10/20 10:55:06;;;;;;;;;8.25;6.75;;;;;22.03;48.44;100567.88;5014379;28;51110;-47
2021/10/20 10:57:42;;;;;;;;;11.50;8.00;;;;;22.03;48.57;100576.16;4996300;28;52850;-46
2021/10/20 11:00:25;;;;;;;;;5.00;5.00;;;;;22.03;48.82;100573.41;5014410;28;51294;-48
2021/10/20 11:03:06;;;;;;;;;8.25;7.25;;;;;22.03;48.27;100584.44;5014082;28;50937;-48
2021/10/20 11:05:32;;;;;;;;;7.50;6.50;;;;;22.03;48.68;100577.00;5014276;28;51038;-48
2021/10/20 11:08:04;;;;;;;;;10.25;9.25;;;;;22.03;48.68;100582.50;5013203;28;51806;-45
2021/10/20 11:10:31;;;;;;;;;7.50;7.50;;;;;22.03;48.78;100579.75;5013602;28;51048;-47
2021/10/20 11:12:58;;;;;;;;;9.50;7.00;;;;;22.04;48.69;100584.19;5016229;28;51219;-46
2021/10/20 11:15:26;;;;;;;;;8.25;8.25;;;;;22.03;48.76;100577.00;5017563;28;51010;-47
2021/10/20 11:17:52;;;;;;;;;10.00;7.00;;;;;22.04;48.31;100566.81;5017006;28;51882;-46
2021/10/20 11:20:20;;;;;;;;;7.00;7.00;;;;;22.04;48.72;100555.78;5000136;28;51172;-45
2021/10/20 11:22:54;;;;;;;;;14.50;9.25;;;;;22.04;48.73;100555.78;4997389;28;51115;-44